.
WxDataArchive / Data Records for 2015-09-11
2015-09-10 September 2015 2015-09-12

Data Records for Friday, 11 September 2015

Time	Temp	Chill	HIndex	Humid	Dewpt	 Wind 	HiWind	WindDir	Rain 	Barom 
-----	----	-----	------	-----	-----	------	------	-------	-----	----- 
04:05	60.1	60.1	60.1	92	57.8	0	1	315	0.00	29.859 
04:10	60.2	60.2	60.2	92	57.9	0	1	315	0.00	29.859 
04:15	60.5	60.5	60.5	92	58.2	0	1	315	0.00	29.859 
04:20	60.5	60.5	60.5	92	58.2	0	0	---	0.00	29.859 
04:25	60.7	60.7	60.7	92	58.4	0	0	---	0.00	29.859 
04:30	60.9	60.9	60.9	92	58.6	0	0	---	0.00	29.854 
04:35	60.9	60.9	60.9	92	58.6	0	1	315	0.00	29.854 
04:40	60.9	60.9	60.9	91	58.3	0	1	315	0.00	29.854 
04:45	60.7	60.7	60.7	91	58.1	0	1	315	0.00	29.857 
04:50	60.7	60.7	60.7	91	58.1	0	0	---	0.00	29.857 
04:55	60.7	60.7	60.7	91	58.1	0	0	---	0.00	29.857 
05:00	60.7	60.7	60.7	91	58.1	0	0	---	0.00	29.854 
05:05	60.7	60.7	60.7	91	58.1	0	0	---	0.00	29.854 
05:10	60.7	60.7	60.7	91	58.1	0	1	315	0.00	29.854 
05:15	60.7	60.7	60.7	91	58.1	0	0	---	0.00	29.848 
05:20	60.7	60.7	60.7	91	58.1	0	0	---	0.00	29.848 
05:25	60.5	60.5	60.5	91	57.9	0	1	315	0.00	29.848 
05:30	60.5	60.5	60.5	91	57.9	0	1	315	0.00	29.851 
05:35	60.4	60.4	60.4	91	57.8	0	0	---	0.00	29.851 
05:40	60.4	60.4	60.4	91	57.8	0	0	---	0.00	29.851 
05:45	60.2	60.2	60.2	91	57.6	0	0	---	0.00	29.850 
05:50	60.1	60.1	60.1	91	57.5	0	1	315	0.00	29.850 
05:55	60.1	60.1	60.1	92	57.8	0	2	315	0.00	29.850 
06:00	60.1	60.1	60.1	92	57.8	0	1	315	0.00	29.854 
06:05	59.9	59.9	59.9	92	57.6	0	2	315	0.00	29.854 
06:10	59.9	59.9	59.9	92	57.6	0	1	315	0.00	29.854 
06:15	59.9	59.9	59.9	92	57.6	0	0	---	0.00	29.859 
06:20	59.8	59.8	59.8	92	57.5	0	0	---	0.00	29.859 
06:25	59.8	59.8	59.8	92	57.5	0	0	---	0.00	29.859 
06:30	59.6	59.6	59.6	92	57.3	0	1	315	0.00	29.864 
06:35	59.5	59.5	59.5	92	57.2	0	1	315	0.00	29.864 
06:40	59.5	59.5	59.5	92	57.2	0	1	315	0.00	29.864 
06:45	59.5	59.5	59.5	92	57.2	0	0	---	0.00	29.862 
06:50	59.3	59.3	59.3	92	57.0	0	0	---	0.00	29.862 
06:55	59.3	59.3	59.3	93	57.3	0	0	---	0.00	29.862 
07:00	59.3	59.3	59.3	93	57.3	0	0	---	0.00	29.863 
07:05	59.3	59.3	59.3	93	57.3	0	0	---	0.00	29.863 
07:10	59.2	59.2	59.2	93	57.2	0	0	---	0.00	29.863 
07:15	59.2	59.2	59.2	93	57.2	0	0	---	0.00	29.866 
07:20	59.2	59.2	59.2	93	57.2	0	0	---	0.00	29.866 
07:25	59.2	59.2	59.2	93	57.2	0	0	---	0.00	29.866 
07:30	59.3	59.3	59.3	93	57.3	0	0	---	0.00	29.867 
07:35	59.3	59.3	59.3	93	57.3	0	0	---	0.00	29.867 
07:40	59.5	59.5	59.5	93	57.5	0	0	---	0.00	29.867 
07:45	59.5	59.5	59.5	93	57.5	0	1	315	0.00	29.867 
07:50	59.6	59.6	59.6	93	57.6	0	0	---	0.00	29.867 
07:55	59.6	59.6	59.6	93	57.6	0	0	---	0.00	29.867 
08:00	59.8	59.8	59.8	94	58.1	0	0	---	0.00	29.870 
08:05	59.9	59.9	59.9	93	57.9	0	0	---	0.00	29.870 
08:10	59.9	59.9	59.9	93	57.9	0	0	---	0.00	29.870 
08:15	60.1	60.1	60.1	93	58.1	0	0	---	0.00	29.872 
08:20	60.2	60.2	60.2	93	58.2	0	0	---	0.00	29.872 
08:25	60.4	60.4	60.4	93	58.4	0	1	315	0.00	29.872 
08:30	60.5	60.5	60.5	93	58.5	0	1	315	0.00	29.879 
08:35	60.7	60.7	60.7	93	58.7	0	1	315	0.00	29.879 
08:40	60.7	60.7	60.7	93	58.7	0	1	315	0.00	29.879 
08:45	60.9	60.9	60.9	93	58.9	0	0	---	0.00	29.886 
08:50	60.9	60.9	60.9	93	58.9	0	1	315	0.00	29.886 
08:55	60.9	60.9	60.9	92	58.6	0	0	---	0.00	29.886 
09:00	60.9	60.9	60.9	92	58.6	0	1	315	0.00	29.886 
09:05	60.9	60.9	60.9	92	58.6	0	0	---	0.00	29.886 
09:10	60.9	60.9	60.9	92	58.6	0	0	---	0.00	29.886 
09:15	60.9	60.9	60.9	92	58.6	0	1	315	0.00	29.900 
09:20	60.9	60.9	60.9	92	58.6	0	1	315	0.00	29.900 
09:25	60.9	60.9	60.9	92	58.6	0	1	315	0.00	29.900 
09:30	60.7	60.7	60.7	92	58.4	0	2	315	0.00	29.901 
09:35	60.7	60.7	60.7	92	58.4	0	1	315	0.00	29.901 
09:40	60.7	60.7	60.7	92	58.4	0	1	315	0.00	29.901 
09:45	60.7	60.7	60.7	92	58.4	0	1	315	0.00	29.903 
09:50	60.7	60.7	60.7	92	58.4	0	2	315	0.00	29.903 
09:55	60.9	60.9	60.9	93	58.9	0	2	315	0.00	29.903 
10:00	61.0	61.0	61.0	93	59.0	0	2	315	0.00	29.914 
10:05	61.0	61.0	61.0	93	59.0	1	4	315	0.00	29.914 
10:10	61.2	61.2	61.2	93	59.2	1	3	315	0.00	29.914 
10:15	61.2	61.2	61.2	93	59.2	0	4	315	0.00	29.918 
10:20	61.2	61.2	61.2	93	59.2	0	3	315	0.00	29.918 
10:25	61.2	61.2	61.2	93	59.2	1	3	315	0.00	29.918 
10:30	61.2	61.2	61.2	93	59.2	0	2	315	0.00	29.919 
10:35	61.2	61.2	61.2	93	59.2	0	1	315	0.00	29.919 
10:40	61.3	61.3	61.3	93	59.3	0	0	---	0.00	29.919 
10:45	61.3	61.3	61.3	93	59.3	0	1	315	0.01	29.924 
10:50	61.5	61.5	61.5	93	59.5	0	0	---	0.00	29.924 
10:55	61.6	61.6	61.6	93	59.6	0	0	---	0.01	29.924 
11:00	61.6	61.6	61.6	93	59.6	0	0	---	0.00	29.914 
11:05	61.6	61.6	61.6	93	59.6	0	0	---	0.00	29.914 
11:10	61.8	61.8	61.8	93	59.8	0	0	---	0.01	29.914 
11:15	61.8	61.8	61.8	93	59.8	0	0	---	0.00	29.911 
11:20	62.0	62.0	62.0	93	59.9	0	1	315	0.00	29.911 
11:25	62.0	62.0	62.0	93	59.9	0	1	315	0.01	29.911 
11:30	62.0	62.0	62.0	93	59.9	0	1	315	0.00	29.907 
11:35	62.0	62.0	62.0	93	59.9	0	1	315	0.00	29.907 
11:40	62.0	62.0	62.0	93	59.9	0	1	315	0.01	29.907 
11:45	62.1	62.1	62.1	93	60.0	0	0	---	0.00	29.909 
11:50	62.1	62.1	62.1	93	60.0	0	1	315	0.01	29.909 
11:55	62.1	62.1	62.1	93	60.0	0	0	---	0.00	29.909 
12:00	62.1	62.1	62.1	93	60.0	0	1	315	0.01	29.916 
12:05	62.0	62.0	62.0	93	59.9	0	0	---	0.01	29.916 
12:10	62.0	62.0	62.0	93	59.9	0	1	315	0.00	29.916 
12:15	62.0	62.0	62.0	93	59.9	0	0	---	0.00	29.907 
12:20	62.1	62.1	62.1	94	60.3	0	0	---	0.01	29.907 
12:25	62.1	62.1	62.1	93	60.0	0	1	315	0.00	29.907 
12:30	62.1	62.1	62.1	94	60.3	0	1	315	0.00	29.904 
12:35	62.1	62.1	62.1	93	60.0	0	1	315	0.00	29.904 
12:40	62.1	62.1	62.1	93	60.0	0	1	315	0.00	29.904 
12:45	62.1	62.1	62.1	93	60.0	0	0	---	0.01	29.904 
12:50	62.0	62.0	62.0	93	59.9	0	1	315	0.00	29.904 
12:55	62.0	62.0	62.0	93	59.9	0	0	---	0.00	29.904 
13:00	61.8	61.8	61.8	93	59.8	0	1	315	0.00	29.906 
13:05	61.8	61.8	61.8	93	59.8	0	2	315	0.00	29.906 
13:10	61.8	61.8	61.8	93	59.8	0	2	315	0.00	29.906 
13:15	61.8	61.8	61.8	93	59.8	0	0	---	0.00	29.906 
13:20	62.0	62.0	62.0	94	60.2	0	0	---	0.00	29.906 
13:25	62.1	62.1	62.1	93	60.0	0	0	---	0.00	29.906 
13:30	62.3	62.3	62.3	94	60.5	0	0	---	0.00	29.904 
13:35	62.3	62.3	62.3	93	60.2	0	0	---	0.01	29.904 
13:40	62.1	62.1	62.1	93	60.0	0	1	315	0.00	29.904 
13:45	62.0	62.0	62.0	93	59.9	0	1	315	0.00	29.900 
13:50	62.0	62.0	62.0	93	59.9	0	1	315	0.00	29.900 
13:55	62.0	62.0	62.0	93	59.9	0	1	315	0.00	29.900 
14:00	61.8	61.8	61.8	93	59.8	0	1	315	0.00	29.903 
14:05	62.0	62.0	62.0	93	59.9	0	0	---	0.00	29.903 
14:10	61.8	61.8	61.8	93	59.8	0	1	315	0.01	29.903 
14:15	61.6	61.6	61.6	93	59.6	0	1	315	0.00	29.904 
14:20	61.6	61.6	61.6	92	59.2	0	1	315	0.00	29.904 
14:25	61.6	61.6	61.6	92	59.2	0	0	---	0.00	29.904 
14:30	61.5	61.5	61.5	92	59.2	0	1	315	0.00	29.906 
14:35	61.5	61.5	61.5	92	59.2	0	2	315	0.00	29.906 
14:40	61.5	61.5	61.5	92	59.2	0	1	315	0.00	29.906 
14:45	61.3	61.3	61.3	92	59.0	0	1	315	0.00	29.906 
14:50	61.5	61.5	61.5	92	59.2	0	1	315	0.01	29.906 
14:55	61.6	61.6	61.6	92	59.2	0	1	315	0.00	29.906 
15:00	62.0	62.0	62.0	92	59.6	0	0	---	0.00	29.892 
15:05	62.0	62.0	62.0	92	59.6	0	2	315	0.00	29.892 
15:10	62.0	62.0	62.0	92	59.6	0	0	---	0.00	29.892 
15:15	62.0	62.0	62.0	92	59.6	0	2	315	0.00	29.885 
15:20	62.0	62.0	62.0	91	59.3	0	2	315	0.00	29.885 
15:25	62.0	62.0	62.0	91	59.3	0	1	315	0.01	29.885 
15:30	62.0	62.0	62.0	91	59.3	0	2	315	0.00	29.889 
15:35	62.0	62.0	62.0	91	59.3	0	2	315	0.00	29.889 
15:40	62.1	62.1	62.1	91	59.4	0	2	315	0.00	29.889 
15:45	62.1	62.1	62.1	90	59.1	0	1	315	0.00	29.887 
15:50	62.0	62.0	62.0	90	59.0	0	3	315	0.00	29.887 
15:55	61.8	61.8	61.8	89	58.5	0	2	315	0.00	29.887 
16:00	61.6	61.6	61.6	89	58.3	0	1	315	0.00	29.886 
16:05	61.6	61.6	61.6	89	58.3	0	1	315	0.00	29.886 
16:10	61.6	61.6	61.6	88	58.0	0	2	315	0.00	29.886 
16:15	61.6	61.6	61.6	87	57.7	0	1	315	0.00	29.886 
16:20	62.0	62.0	62.0	87	58.1	0	1	315	0.00	29.886 
16:25	62.0	62.0	62.0	87	58.1	0	0	---	0.00	29.886 
16:30	62.4	62.4	62.4	87	58.5	0	1	315	0.00	29.881 
16:35	62.9	62.9	62.9	86	58.6	0	1	315	0.00	29.881 
16:40	63.4	63.4	63.4	85	58.8	0	3	315	0.00	29.881 
16:45	63.7	63.7	63.7	82	58.1	1	3	315	0.00	29.874 
16:50	63.9	63.9	63.9	81	57.9	0	2	315	0.00	29.874 
16:55	63.9	63.9	63.9	80	57.6	0	1	315	0.00	29.874 
17:00	63.7	63.7	63.7	78	56.7	0	1	315	0.00	29.875 
17:05	63.7	63.7	63.7	78	56.7	0	2	315	0.00	29.875 
17:10	63.9	63.9	63.9	78	56.9	0	2	315	0.00	29.875 
17:15	63.5	63.5	63.5	74	55.1	0	2	315	0.00	29.875 
17:20	63.5	63.5	63.5	73	54.7	0	1	315	0.00	29.875 
17:25	63.5	63.5	63.5	74	55.1	0	1	315	0.00	29.875 
17:30	63.5	63.5	63.5	73	54.7	0	2	315	0.00	29.875 
17:35	63.9	63.9	63.9	72	54.7	0	1	315	0.00	29.875 
17:40	64.2	64.2	64.2	75	56.1	0	1	315	0.00	29.875 
17:45	64.3	64.3	64.3	73	55.5	0	1	315	0.00	29.874 
17:50	64.5	64.5	64.5	70	54.5	0	2	315	0.00	29.874 
17:55	64.8	64.8	64.8	70	54.8	0	0	---	0.00	29.874 
18:00	64.8	64.8	64.8	71	55.2	0	1	315	0.00	29.878 
18:05	64.8	64.8	64.8	71	55.2	0	1	315	0.00	29.878 
18:10	64.7	64.7	64.7	70	54.7	0	1	315	0.00	29.878 
18:15	64.8	64.8	64.8	70	54.8	0	0	---	0.00	29.879 
18:20	64.8	64.8	64.8	72	55.6	0	1	315	0.00	29.879 
18:25	64.8	64.8	64.8	73	55.9	0	0	---	0.00	29.879 
18:30	64.8	64.8	64.8	74	56.3	0	1	315	0.00	29.879 
18:35	64.5	64.5	64.5	76	56.8	1	3	315	0.00	29.879 
18:40	64.2	64.2	64.2	78	57.2	0	2	315	0.00	29.879 
18:45	63.9	63.9	63.9	80	57.6	0	1	315	0.00	29.882 
18:50	63.5	63.5	63.5	81	57.6	0	1	315	0.00	29.882 
18:55	63.2	63.2	63.2	82	57.6	0	1	315	0.00	29.882 
19:00	62.7	62.7	62.7	81	56.8	0	3	315	0.00	29.883 
19:05	62.3	62.3	62.3	77	55.0	1	3	315	0.00	29.883 
19:10	62.0	62.0	62.0	76	54.3	0	1	315	0.00	29.883 
19:15	61.8	61.8	61.8	75	53.8	0	2	315	0.00	29.885 
19:20	61.8	61.8	61.8	76	54.1	0	1	315	0.00	29.885 
19:25	61.6	61.6	61.6	78	54.7	0	1	315	0.00	29.885 
19:30	61.6	61.6	61.6	79	55.0	0	1	315	0.00	29.885 
19:35	61.5	61.5	61.5	81	55.6	0	1	315	0.00	29.885 
19:40	61.5	61.5	61.5	81	55.6	0	0	---	0.00	29.885 
19:45	61.5	61.5	61.5	82	55.9	0	1	315	0.00	29.886 
19:50	61.5	61.5	61.5	83	56.3	0	0	---	0.00	29.886 
19:55	61.5	61.5	61.5	84	56.6	0	0	---	0.00	29.886 
20:00	61.5	61.5	61.5	84	56.6	0	0	---	0.00	29.886 
20:05	61.5	61.5	61.5	84	56.6	0	1	315	0.00	29.886 
20:10	61.5	61.5	61.5	85	56.9	0	1	315	0.00	29.886 
20:15	61.5	61.5	61.5	86	57.3	0	1	315	0.00	29.887 
20:20	61.5	61.5	61.5	86	57.3	0	1	315	0.00	29.887 
20:25	61.5	61.5	61.5	87	57.6	0	0	---	0.00	29.887 
20:30	61.5	61.5	61.5	87	57.6	0	1	315	0.00	29.891 
20:35	61.5	61.5	61.5	88	57.9	0	1	315	0.00	29.891 
20:40	61.5	61.5	61.5	88	57.9	0	0	---	0.00	29.891 
20:45	61.3	61.3	61.3	89	58.0	0	1	315	0.00	29.894 
20:50	61.3	61.3	61.3	89	58.0	0	2	315	0.00	29.894 
20:55	61.3	61.3	61.3	90	58.3	0	2	315	0.00	29.894 
21:00	61.2	61.2	61.2	90	58.2	0	3	315	0.00	29.901 
21:05	60.9	60.9	60.9	89	57.6	0	2	315	0.00	29.901 
21:10	60.7	60.7	60.7	89	57.4	0	2	315	0.00	29.901 
21:15	60.7	60.7	60.7	88	57.1	0	1	315	0.00	29.898 
21:20	60.5	60.5	60.5	88	56.9	0	1	315	0.00	29.898 
21:25	60.5	60.5	60.5	88	56.9	1	3	315	0.00	29.898 
21:30	60.4	60.4	60.4	88	56.8	0	2	315	0.00	29.903 
21:35	60.4	60.4	60.4	87	56.5	0	3	315	0.00	29.903 
21:40	60.2	60.2	60.2	86	56.0	0	2	315	0.00	29.903 
21:45	60.2	60.2	60.2	86	56.0	0	3	315	0.00	29.910 
21:50	60.1	60.1	60.1	85	55.6	0	3	315	0.00	29.910 
21:55	60.2	60.2	60.2	84	55.3	0	3	315	0.00	29.910 
22:00	60.2	60.2	60.2	83	55.0	0	3	315	0.00	29.911 
22:05	60.2	60.2	60.2	81	54.3	0	3	315	0.00	29.911 
22:10	60.2	60.2	60.2	80	54.0	0	2	315	0.00	29.911 
22:15	60.2	60.2	60.2	79	53.7	0	2	315	0.00	29.911 
22:20	60.2	60.2	60.2	79	53.7	0	2	315	0.00	29.911 
22:25	60.1	60.1	60.1	78	53.2	0	3	315	0.00	29.911 
22:30	59.9	59.9	59.9	79	53.4	0	1	315	0.00	29.910 
22:35	59.8	59.8	59.8	79	53.3	0	1	315	0.00	29.910 
22:40	59.5	59.5	59.5	79	53.0	0	1	315	0.00	29.910 
22:45	59.3	59.3	59.3	80	53.1	0	3	315	0.00	29.914 
22:50	59.2	59.2	59.2	81	53.4	0	2	315	0.00	29.914 
22:55	58.9	58.9	58.9	81	53.1	0	2	315	0.00	29.914 
23:00	58.7	58.7	58.7	81	52.9	0	2	315	0.00	29.909 
23:05	58.6	58.6	58.6	82	53.1	0	3	315	0.00	29.909 
23:10	58.4	58.4	58.4	82	52.9	0	3	315	0.00	29.909 
23:15	58.4	58.4	58.4	82	52.9	0	2	315	0.00	29.910 
23:20	58.4	58.4	58.4	82	52.9	0	1	315	0.00	29.910 
23:25	58.4	58.4	58.4	82	52.9	0	3	315	0.00	29.910 
23:30	58.3	58.3	58.3	81	52.5	0	3	315	0.00	29.914 
23:35	58.3	58.3	58.3	81	52.5	0	3	315	0.00	29.914 
23:40	58.4	58.4	58.4	80	52.3	0	3	315	0.00	29.914 
23:45	58.4	58.4	58.4	80	52.3	0	1	315	0.00	29.918 
23:50	58.4	58.4	58.4	80	52.3	0	2	315	0.00	29.918 
23:55	58.3	58.3	58.3	79	51.8	0	2	315	0.00	29.918 

CoCoRaHS
IN-AL-39
A2 Web Hosting
Creative Commons License
GoDaddy
search engine by freefind advanced

loaded 2018-11-13 22:12:45 • last modified 2010-11-18 10:43:29
Privacy PolicyDisclaimer
• wx.awcolley.com is powered by PmWiki v.2002016 •
• all content (unless otherwise noted) © 2018 A W Colley